Time;durP1;ratioP1;P1;durP2;ratioP2;P2;SDS_P1;SDS_P2;PMS_P1;PMS_P2;Temp;Humidity;BMP_temperature;BMP_pressure;BME280_temperature;BME280_humidity;BME280_pressure;Samples;Min_cycle;Max_cycle;Signal;HPM_P1;HPM_P2
2022/05/02 00:00:44;;;;;;;6.10;5.80;;;;;;;8.06;100.00;101159.69;5042968;28;20021;-63
2022/05/02 00:03:10;;;;;;;6.25;5.95;;;;;;;8.02;100.00;101149.44;5047411;28;20103;-62
2022/05/02 00:05:37;;;;;;;6.05;5.80;;;;;;;8.07;100.00;101158.72;5050624;28;20028;-62
2022/05/02 00:08:03;;;;;;;6.20;5.90;;;;;;;7.99;100.00;101152.34;5045881;28;20108;-63
2022/05/02 00:10:28;;;;;;;5.78;5.57;;;;;;;7.97;100.00;101151.66;5051517;28;20116;-62
2022/05/02 00:12:54;;;;;;;6.43;6.13;;;;;;;7.99;100.00;101146.22;5054995;28;20423;-62
2022/05/02 00:15:19;;;;;;;6.20;5.90;;;;;;;8.07;100.00;101142.88;5050438;28;20088;-63
2022/05/02 00:17:57;;;;;;;6.10;5.80;;;;;;;8.02;100.00;101145.97;5054687;28;20384;-62
2022/05/02 00:20:32;;;;;;;5.97;5.70;;;;;;;7.91;100.00;101149.56;5049643;28;20029;-62
2022/05/02 00:23:00;;;;;;;5.80;5.60;;;;;;;7.94;100.00;101151.94;5054137;28;20399;-62
2022/05/02 00:25:26;;;;;;;5.72;5.53;;;;;;;7.83;100.00;101156.56;5052900;28;20025;-61
2022/05/02 00:27:52;;;;;;;5.90;5.70;;;;;;;7.92;100.00;101143.31;5054326;28;20040;-63
2022/05/02 00:30:19;;;;;;;5.93;5.70;;;;;;;8.01;100.00;101144.28;5059345;28;20020;-61
2022/05/02 00:32:45;;;;;;;5.90;5.70;;;;;;;8.02;100.00;101140.66;5062848;28;20017;-63
2022/05/02 00:35:11;;;;;;;5.95;5.72;;;;;;;7.84;100.00;101143.19;5054542;28;20079;-63
2022/05/02 00:37:38;;;;;;;6.20;5.90;;;;;;;7.75;100.00;101136.13;5052490;28;20392;-63
2022/05/02 00:40:06;;;;;;;5.88;5.68;;;;;;;7.72;100.00;101136.41;5046507;28;20025;-62
2022/05/02 00:42:31;;;;;;;6.10;5.80;;;;;;;7.66;100.00;101143.09;5046669;28;20488;-62
2022/05/02 00:44:57;;;;;;;5.88;5.68;;;;;;;7.56;100.00;101136.13;5054856;28;20039;-63
2022/05/02 00:47:22;;;;;;;5.90;5.70;;;;;;;7.45;100.00;101135.31;5049726;28;20025;-62
2022/05/02 00:49:48;;;;;;;5.80;5.60;;;;;;;7.32;100.00;101115.44;5048466;28;20078;-62
2022/05/02 00:52:14;;;;;;;6.10;5.80;;;;;;;7.35;100.00;101133.66;5054486;28;20111;-64
2022/05/02 00:54:41;;;;;;;6.18;5.88;;;;;;;7.30;100.00;101128.78;5054659;28;20167;-63
2022/05/02 00:57:07;;;;;;;6.28;5.97;;;;;;;7.39;100.00;101132.41;5051731;28;20080;-62
2022/05/02 00:59:36;;;;;;;5.97;5.72;;;;;;;7.19;100.00;101142.94;5044035;28;20075;-61
2022/05/02 01:02:03;;;;;;;6.30;6.00;;;;;;;7.17;100.00;101136.97;5053481;28;20025;-61
2022/05/02 01:04:29;;;;;;;6.05;5.80;;;;;;;7.16;100.00;101137.13;5056747;28;20048;-63
2022/05/02 01:07:10;;;;;;;5.80;5.60;;;;;;;7.24;100.00;101131.97;5049303;28;20118;-63
2022/05/02 01:09:41;;;;;;;6.18;5.88;;;;;;;7.00;100.00;101131.56;5054169;28;20021;-61
2022/05/02 01:12:15;;;;;;;5.97;5.70;;;;;;;6.98;100.00;101125.56;5054374;28;20079;-62
2022/05/02 01:14:42;;;;;;;5.60;5.40;;;;;;;7.05;100.00;101129.31;5052253;28;20020;-62
2022/05/02 01:17:09;;;;;;;6.57;6.28;;;;;;;6.99;100.00;101128.09;5053171;28;20331;-62
2022/05/02 01:19:35;;;;;;;5.90;5.70;;;;;;;7.10;100.00;101129.75;5053975;28;20029;-62
2022/05/02 01:22:01;;;;;;;5.93;5.72;;;;;;;7.00;100.00;101126.28;5054418;28;20108;-62
2022/05/02 01:24:37;;;;;;;5.80;5.60;;;;;;;7.06;100.00;101123.09;5053911;28;20078;-61
2022/05/02 01:27:04;;;;;;;5.68;5.47;;;;;;;6.93;100.00;101129.44;5046062;28;20090;-62
2022/05/02 01:29:32;;;;;;;5.60;5.40;;;;;;;7.00;100.00;101131.56;5053837;28;20503;-62
2022/05/02 01:31:58;;;;;;;5.78;5.57;;;;;;;6.88;100.00;101121.09;5052943;28;20029;-61
2022/05/02 01:34:23;;;;;;;5.78;5.57;;;;;;;6.89;100.00;101128.03;5049405;28;20473;-61
2022/05/02 01:36:49;;;;;;;5.70;5.50;;;;;;;6.87;100.00;101126.53;5046686;28;20098;-61
2022/05/02 01:39:15;;;;;;;5.95;5.70;;;;;;;6.86;100.00;101127.50;5060873;28;20133;-62
2022/05/02 01:41:40;;;;;;;6.40;6.10;;;;;;;6.83;100.00;101125.13;5053501;28;20021;-61
2022/05/02 01:44:06;;;;;;;5.63;5.43;;;;;;;6.81;100.00;101127.88;5049956;28;20094;-62
2022/05/02 01:46:31;;;;;;;5.95;5.70;;;;;;;6.74;100.00;101139.13;5053715;28;20025;-61
2022/05/02 01:48:58;;;;;;;5.80;5.60;;;;;;;6.71;100.00;101126.22;5052609;28;20025;-61
2022/05/02 01:51:24;;;;;;;5.80;5.60;;;;;;;6.68;100.00;101140.47;5053003;28;20063;-63
2022/05/02 01:53:50;;;;;;;6.05;5.75;;;;;;;6.71;100.00;101131.50;5053493;28;20060;-62
2022/05/02 01:56:15;;;;;;;5.80;5.60;;;;;;;6.32;100.00;101123.47;5052752;28;20033;-61
2022/05/02 01:58:41;;;;;;;6.13;5.82;;;;;;;6.23;100.00;101119.78;5053158;28;20068;-61
2022/05/02 02:01:06;;;;;;;5.57;5.38;;;;;;;6.44;100.00;101116.28;5053293;28;20047;-62
2022/05/02 02:03:32;;;;;;;6.63;6.32;;;;;;;6.58;100.00;101119.38;5041641;28;20032;-62
2022/05/02 02:05:58;;;;;;;5.85;5.65;;;;;;;6.46;100.00;101123.06;5037808;28;20033;-62
2022/05/02 02:08:30;;;;;;;6.50;6.20;;;;;;;6.45;100.00;101121.41;5046968;28;20021;-62
2022/05/02 02:10:58;;;;;;;5.70;5.50;;;;;;;6.46;100.00;101116.97;5052903;28;20025;-62
2022/05/02 02:13:24;;;;;;;6.40;6.10;;;;;;;6.49;100.00;101116.72;5053512;28;20029;-61
2022/05/02 02:15:50;;;;;;;6.45;6.15;;;;;;;6.34;100.00;101111.81;5053346;28;20025;-62
2022/05/02 02:18:16;;;;;;;6.32;6.03;;;;;;;6.36;100.00;101106.41;5052713;28;20021;-62
2022/05/02 02:20:43;;;;;;;5.85;5.65;;;;;;;6.37;100.00;101106.25;5051527;28;20112;-62
2022/05/02 02:23:10;;;;;;;6.00;5.70;;;;;;;6.34;100.00;101113.59;5046733;28;20031;-61
2022/05/02 02:25:37;;;;;;;6.10;5.80;;;;;;;6.35;100.00;101116.09;5050947;28;20025;-61
2022/05/02 02:28:03;;;;;;;6.05;5.75;;;;;;;6.39;100.00;101116.69;5053025;28;20357;-63
2022/05/02 02:30:31;;;;;;;6.32;6.03;;;;;;;6.38;100.00;101118.47;5052189;28;20055;-61
2022/05/02 02:32:57;;;;;;;6.25;5.95;;;;;;;6.29;100.00;101119.25;5052943;28;20028;-61
2022/05/02 02:35:23;;;;;;;5.80;5.60;;;;;;;6.08;100.00;101115.84;5047570;28;20078;-63
2022/05/02 02:37:49;;;;;;;6.18;5.88;;;;;;;6.03;100.00;101108.34;5050175;28;20024;-62
2022/05/02 02:40:15;;;;;;;6.40;6.10;;;;;;;6.07;100.00;101106.28;5039177;28;20025;-63
2022/05/02 02:42:41;;;;;;;6.50;6.20;;;;;;;6.18;100.00;101106.19;5049326;28;20041;-62
2022/05/02 02:45:07;;;;;;;5.93;5.70;;;;;;;6.18;100.00;101105.38;5052355;28;20070;-62
2022/05/02 02:47:33;;;;;;;5.90;5.70;;;;;;;6.32;100.00;101102.38;5057766;28;20437;-62
2022/05/02 02:49:59;;;;;;;6.20;5.90;;;;;;;6.20;100.00;101101.63;5052155;28;20017;-63
2022/05/02 02:52:24;;;;;;;6.40;6.10;;;;;;;6.33;100.00;101104.88;5052594;28;20024;-62
2022/05/02 02:54:50;;;;;;;5.45;5.25;;;;;;;6.41;100.00;101108.66;5050135;28;20055;-63
2022/05/02 02:57:15;;;;;;;6.32;6.03;;;;;;;6.39;100.00;101106.16;5050362;28;20024;-63
2022/05/02 02:59:41;;;;;;;6.43;6.13;;;;;;;6.61;100.00;101113.84;5051188;28;20516;-63
2022/05/02 03:02:07;;;;;;;6.13;5.82;;;;;;;6.25;100.00;101109.16;5050239;28;20059;-63
2022/05/02 03:07:18;;;;;;;6.10;5.80;;;;;;;6.29;100.00;101102.63;5051440;28;20035;-62
2022/05/02 03:09:44;;;;;;;6.95;6.65;;;;;;;6.37;100.00;101097.53;5050379;28;20107;-62
2022/05/02 03:12:09;;;;;;;5.70;5.50;;;;;;;6.67;100.00;101099.28;5042272;28;20472;-62
2022/05/02 03:14:35;;;;;;;6.10;5.80;;;;;;;6.58;100.00;101108.81;5050112;28;20032;-62
2022/05/02 03:17:01;;;;;;;5.72;5.53;;;;;;;6.73;100.00;101103.19;5051302;28;20041;-61
2022/05/02 03:19:26;;;;;;;5.80;5.60;;;;;;;7.01;100.00;101109.47;5050661;28;20063;-62
2022/05/02 03:21:52;;;;;;;6.43;6.13;;;;;;;7.25;100.00;101109.91;5047659;28;20033;-62
2022/05/02 03:24:18;;;;;;;5.80;5.60;;;;;;;7.44;100.00;101095.88;5042740;28;20069;-62
2022/05/02 03:26:43;;;;;;;5.97;5.72;;;;;;;8.28;100.00;101117.06;5054672;28;20082;-63
2022/05/02 03:29:09;;;;;;;5.97;5.78;;;;;;;8.44;100.00;101124.41;5059912;28;20076;-62
2022/05/02 03:31:34;;;;;;;5.70;5.50;;;;;;;8.98;100.00;101122.72;5063154;28;20021;-63
2022/05/02 03:34:00;;;;;;;6.95;6.65;;;;;;;9.30;100.00;101119.53;5041466;28;20029;-63
2022/05/02 03:36:25;;;;;;;5.90;5.70;;;;;;;9.97;100.00;101126.03;5054471;28;20024;-63
2022/05/02 03:38:51;;;;;;;5.95;5.75;;;;;;;10.89;95.17;101121.84;5048114;28;20481;-62
2022/05/02 03:41:16;;;;;;;6.70;6.40;;;;;;;11.55;90.27;101120.91;5042304;28;20047;-62
2022/05/02 03:43:42;;;;;;;6.50;6.20;;;;;;;11.38;89.04;101125.38;5048682;28;20029;-63
2022/05/02 03:46:08;;;;;;;6.40;6.10;;;;;;;12.36;83.19;101128.78;5038003;28;20033;-62
2022/05/02 03:48:34;;;;;;;6.00;5.78;;;;;;;13.32;79.14;101134.81;5045087;28;20029;-62
2022/05/02 03:50:59;;;;;;;6.03;5.82;;;;;;;13.50;76.71;101143.31;5054774;28;20025;-63
2022/05/02 03:53:25;;;;;;;6.15;5.95;;;;;;;13.78;74.96;101146.25;5045696;28;20031;-63
2022/05/02 03:55:50;;;;;;;6.55;6.25;;;;;;;13.70;74.75;101139.16;5051203;28;20473;-63
2022/05/02 03:58:16;;;;;;;6.37;6.07;;;;;;;13.62;72.96;101138.41;5005198;28;1298736;-63
2022/05/02 04:00:41;;;;;;;6.30;6.05;;;;;;;14.10;70.72;101140.63;5045953;28;20041;-63
2022/05/02 04:03:06;;;;;;;6.82;6.53;;;;;;;14.61;67.51;101143.38;5048221;28;20528;-63
2022/05/02 04:05:32;;;;;;;6.97;6.68;;;;;;;15.01;65.35;101143.88;5040147;28;20072;-64
2022/05/02 04:07:58;;;;;;;6.60;6.30;;;;;;;14.94;65.27;101159.00;5039521;28;20568;-64
2022/05/02 04:10:23;;;;;;;6.70;6.40;;;;;;;15.66;63.78;101142.91;5047746;28;20084;-64
2022/05/02 04:12:49;;;;;;;6.70;6.40;;;;;;;16.36;59.91;101143.78;5062669;28;20024;-64
2022/05/02 04:15:14;;;;;;;6.88;6.57;;;;;;;16.21;58.84;101146.56;5051271;28;20033;-63
2022/05/02 04:17:41;;;;;;;7.00;6.70;;;;;;;15.22;60.52;101139.56;5050940;28;20029;-63
2022/05/02 04:20:08;;;;;;;7.25;6.95;;;;;;;16.41;59.33;101146.69;5044813;28;20021;-64
2022/05/02 04:22:35;;;;;;;6.70;6.40;;;;;;;17.23;55.57;101143.13;5044818;28;20028;-64
2022/05/02 04:25:01;;;;;;;6.90;6.60;;;;;;;17.86;53.64;101148.16;5050604;28;20552;-64
2022/05/02 04:27:26;;;;;;;7.15;6.85;;;;;;;17.45;52.80;101140.25;5049841;28;20089;-63
2022/05/02 04:29:52;;;;;;;6.90;6.60;;;;;;;17.30;53.66;101141.28;5057101;28;20044;-64
2022/05/02 04:32:17;;;;;;;7.00;6.70;;;;;;;17.12;54.42;101149.91;5050281;28;20108;-64
2022/05/02 04:34:43;;;;;;;7.00;6.70;;;;;;;18.47;50.59;101143.28;5048232;28;20105;-63
2022/05/02 04:37:08;;;;;;;6.85;6.55;;;;;;;19.05;48.57;101148.66;5042309;28;20499;-64
2022/05/02 04:39:34;;;;;;;7.03;6.72;;;;;;;18.65;49.86;101149.84;5050056;28;20029;-64
2022/05/02 04:42:00;;;;;;;7.07;6.78;;;;;;;18.78;48.08;101156.00;5048769;28;20040;-65
2022/05/02 04:44:25;;;;;;;6.90;6.60;;;;;;;18.79;47.68;101151.47;5041828;28;20349;-63
2022/05/02 04:46:51;;;;;;;7.00;6.70;;;;;;;19.36;46.48;101151.56;5044206;28;20037;-64
2022/05/02 04:49:16;;;;;;;6.80;6.50;;;;;;;19.72;44.93;101159.00;5044433;28;20076;-63
2022/05/02 04:51:42;;;;;;;7.18;6.88;;;;;;;19.66;44.68;101149.94;5046739;28;20029;-64
2022/05/02 04:54:07;;;;;;;6.90;6.60;;;;;;;18.99;45.47;101159.44;5055034;28;20029;-63
2022/05/02 04:56:33;;;;;;;6.80;6.50;;;;;;;18.76;46.33;101152.72;5049777;28;20025;-64
2022/05/02 04:58:58;;;;;;;7.18;6.88;;;;;;;19.24;44.19;101156.81;5054289;28;20497;-64
2022/05/02 05:01:24;;;;;;;7.05;6.75;;;;;;;19.09;44.98;101157.09;5045958;28;20400;-63
2022/05/02 05:03:50;;;;;;;6.95;6.65;;;;;;;19.25;44.93;101158.47;5050404;28;20036;-64
2022/05/02 05:06:16;;;;;;;7.30;7.00;;;;;;;20.10;43.01;101148.91;5053713;28;20651;-65
2022/05/02 05:08:42;;;;;;;7.18;6.88;;;;;;;20.61;41.82;101155.84;5051753;28;20044;-65
2022/05/02 05:11:31;;;;;;;7.25;6.95;;;;;;;20.63;41.26;101148.34;5036849;28;20392;-64
2022/05/02 05:17:40;;;;;;;6.95;6.65;;;;;;;20.44;41.81;101144.03;5045390;28;20068;-63
2022/05/02 05:20:18;;;;;;;7.25;6.95;;;;;;;21.30;39.19;101155.59;5041945;28;20041;-64
2022/05/02 05:23:02;;;;;;;7.13;6.82;;;;;;;21.79;38.83;101152.53;5053885;28;20028;-64
2022/05/02 05:25:33;;;;;;;7.15;6.85;;;;;;;22.53;37.50;101150.16;5053443;28;20032;-63
2022/05/02 05:28:21;;;;;;;7.30;7.00;;;;;;;22.61;36.80;101155.19;5052693;28;20033;-63
2022/05/02 05:30:50;;;;;;;7.20;6.90;;;;;;;21.88;38.72;101149.47;5053336;28;20515;-64
2022/05/02 05:33:41;;;;;;;7.00;6.70;;;;;;;21.77;39.08;101146.53;5050229;28;20384;-64
2022/05/02 05:36:09;;;;;;;6.82;6.53;;;;;;;21.84;38.93;101151.00;5044954;28;20048;-64
2022/05/02 05:38:35;;;;;;;7.18;6.88;;;;;;;21.46;39.74;101150.38;5048490;28;20030;-64
2022/05/02 05:41:31;;;;;;;7.03;6.72;;;;;;;21.52;39.74;101144.06;5041410;28;20093;-62
2022/05/02 05:44:11;;;;;;;7.00;6.70;;;;;;;20.62;41.67;101149.41;5053232;28;20039;-64
2022/05/02 05:46:43;;;;;;;7.10;6.80;;;;;;;19.85;43.30;101145.44;5052573;28;20067;-64
2022/05/02 05:49:10;;;;;;;7.30;7.00;;;;;;;19.71;43.23;101147.41;5046599;28;20033;-64
2022/05/02 05:52:00;;;;;;;7.00;6.70;;;;;;;22.40;38.17;101145.03;5053402;28;20063;-69
2022/05/02 05:54:32;;;;;;;7.20;6.90;;;;;;;21.98;38.69;101144.31;5054032;28;20037;-64
2022/05/02 05:57:13;;;;;;;7.07;6.78;;;;;;;22.71;36.93;101151.06;5052348;28;20087;-64
2022/05/02 06:00:09;;;;;;;7.28;6.97;;;;;;;20.77;40.06;101140.94;5045959;28;20029;-63
2022/05/02 06:02:50;;;;;;;6.95;6.65;;;;;;;24.47;34.46;101151.63;5049031;28;20488;-62
2022/05/02 06:05:16;;;;;;;7.30;7.00;;;;;;;23.68;35.40;101146.41;5052888;28;20033;-62
2022/05/02 06:07:44;;;;;;;7.35;7.05;;;;;;;24.50;34.03;101144.88;5056124;28;20159;-64
2022/05/02 06:10:10;;;;;;;7.45;7.15;;;;;;;24.75;34.28;101144.34;5063077;28;20542;-62
2022/05/02 06:12:37;;;;;;;7.10;6.80;;;;;;;24.53;33.71;101138.94;5046978;28;20480;-62
2022/05/02 06:20:43;;;;;;;7.18;6.88;;;;;;;26.03;31.41;101146.38;5051776;28;20044;-63
2022/05/02 06:23:11;;;;;;;7.18;6.88;;;;;;;26.28;30.59;101149.22;5061639;28;20032;-63
2022/05/02 06:25:39;;;;;;;7.22;6.93;;;;;;;25.41;32.21;101139.63;5059715;28;20365;-64
2022/05/02 06:28:06;;;;;;;7.30;7.00;;;;;;;26.91;30.84;101141.09;5056011;28;20104;-65
2022/05/02 06:30:35;;;;;;;7.30;7.00;;;;;;;24.60;32.96;101131.44;5056798;28;20475;-62
2022/05/02 06:33:07;;;;;;;7.10;6.80;;;;;;;27.12;30.31;101139.25;5054179;28;20472;-63
2022/05/02 06:35:40;;;;;;;7.05;6.75;;;;;;;26.46;31.57;101134.41;5049975;28;20396;-63
2022/05/02 06:38:16;;;;;;;7.20;6.90;;;;;;;25.63;31.60;101137.66;5042746;28;20098;-64
2022/05/02 06:40:58;;;;;;;7.15;6.85;;;;;;;27.50;29.04;101135.19;5051868;28;20029;-64
2022/05/02 06:43:29;;;;;;;7.30;7.00;;;;;;;27.09;30.39;101143.31;5059762;28;20024;-64
2022/05/02 06:46:25;;;;;;;7.30;7.00;;;;;;;26.64;30.77;101142.09;5061096;28;20033;-63
2022/05/02 06:48:56;;;;;;;7.18;6.88;;;;;;;27.78;29.44;101151.03;5051541;28;20110;-64
2022/05/02 06:51:42;;;;;;;6.97;6.68;;;;;;;28.10;29.64;101136.22;5056449;28;20528;-63
2022/05/02 06:54:07;;;;;;;7.20;6.90;;;;;;;28.04;28.59;101137.31;5048824;28;20090;-63
2022/05/02 06:56:39;;;;;;;7.07;6.78;;;;;;;28.52;28.66;101133.13;5046458;28;20116;-61
2022/05/02 06:59:38;;;;;;;7.30;7.00;;;;;;;27.70;27.72;101127.03;5057893;28;20048;-63
2022/05/02 07:02:12;;;;;;;7.30;7.00;;;;;;;26.67;28.95;101136.13;5055940;28;20067;-62
2022/05/02 07:04:46;;;;;;;7.18;6.88;;;;;;;28.67;27.54;101124.03;5047088;28;20036;-63
2022/05/02 07:07:35;;;;;;;7.38;7.07;;;;;;;28.48;27.45;101126.56;5055111;28;20507;-63
2022/05/02 07:10:20;;;;;;;7.18;6.88;;;;;;;26.98;28.22;101123.41;5051556;28;20060;-63
2022/05/02 07:13:13;;;;;;;7.25;6.95;;;;;;;23.48;33.38;101118.13;5049749;28;20021;-62
2022/05/02 07:15:51;;;;;;;7.20;6.90;;;;;;;26.94;28.13;101121.47;5037313;28;20044;-65
2022/05/02 07:18:47;;;;;;;7.00;6.70;;;;;;;26.90;28.25;101123.13;5043062;28;20036;-63
2022/05/02 07:21:55;;;;;;;7.20;6.90;;;;;;;26.16;29.24;101111.38;5050752;28;20032;-62
2022/05/02 07:24:40;;;;;;;7.10;6.80;;;;;;;25.15;29.01;101124.19;5041352;28;20036;-60
2022/05/02 07:27:30;;;;;;;7.38;7.07;;;;;;;23.18;33.40;101116.53;5040174;28;20480;-61
2022/05/02 07:30:00;;;;;;;7.18;6.88;;;;;;;23.57;32.05;101128.28;5050964;28;20118;-61
2022/05/02 07:32:27;;;;;;;7.03;6.72;;;;;;;22.79;32.59;101113.63;5052318;28;20025;-61
2022/05/02 07:34:54;;;;;;;7.07;6.78;;;;;;;24.83;30.89;101107.84;5050187;28;20454;-60
2022/05/02 07:37:22;;;;;;;7.20;6.90;;;;;;;25.13;30.62;101113.59;5049864;28;20067;-62
2022/05/02 07:39:52;;;;;;;7.10;6.80;;;;;;;24.00;31.96;101113.25;5051508;28;20024;-62
2022/05/02 07:42:22;;;;;;;7.15;6.85;;;;;;;23.55;31.67;101116.88;5046590;28;20480;-61
2022/05/02 07:44:51;;;;;;;7.10;6.80;;;;;;;20.83;35.74;101114.94;5050581;28;20047;-61
2022/05/02 07:47:18;;;;;;;7.40;7.10;;;;;;;23.04;32.81;101118.72;5051261;28;20064;-62
2022/05/02 07:49:48;;;;;;;7.30;7.00;;;;;;;21.86;34.36;101105.69;5050285;28;20035;-60
2022/05/02 07:52:21;;;;;;;7.00;6.70;;;;;;;22.05;35.08;101101.81;5050988;28;20025;-62
2022/05/02 07:54:49;;;;;;;7.00;6.70;;;;;;;21.82;34.87;101113.44;5049470;28;20499;-62
2022/05/02 07:57:15;;;;;;;6.95;6.65;;;;;;;23.12;32.85;101112.09;5050333;28;20374;-62
2022/05/02 07:59:43;;;;;;;7.10;6.80;;;;;;;22.59;34.00;101110.53;5051258;28;20051;-61
2022/05/02 08:02:09;;;;;;;6.90;6.60;;;;;;;21.76;34.61;101099.00;5042083;28;20108;-62
2022/05/02 08:04:38;;;;;;;6.80;6.50;;;;;;;23.79;32.06;101095.88;5051548;28;20049;-63
2022/05/02 08:07:11;;;;;;;7.10;6.80;;;;;;;20.77;34.88;101094.25;5051202;28;20025;-62
2022/05/02 08:09:49;;;;;;;6.88;6.57;;;;;;;20.04;36.33;101087.03;5047761;28;20033;-62
2022/05/02 08:12:40;;;;;;;7.20;6.90;;;;;;;21.69;33.61;101090.19;5043454;28;20025;-62
2022/05/02 08:15:15;;;;;;;6.80;6.50;;;;;;;21.63;34.18;101091.13;5050486;28;20029;-61
2022/05/02 08:18:08;;;;;;;7.30;7.00;;;;;;;20.08;35.28;101097.13;5050374;28;20033;-63
2022/05/02 08:20:59;;;;;;;7.50;7.20;;;;;;;20.86;34.42;101095.63;5043731;28;20066;-62
2022/05/02 08:27:35;;;;;;;6.60;6.30;;;;;;;19.71;37.83;101084.69;5041385;28;20056;-62
2022/05/02 08:30:17;;;;;;;7.20;6.90;;;;;;;20.12;35.95;101075.94;5040861;28;20028;-62
2022/05/02 08:32:50;;;;;;;6.80;6.50;;;;;;;20.60;35.33;101080.59;5053363;28;20337;-61
2022/05/02 08:35:35;;;;;;;6.80;6.50;;;;;;;19.31;38.22;101076.88;5053795;28;20036;-63
2022/05/02 08:38:28;;;;;;;7.40;7.10;;;;;;;21.00;34.54;101064.69;5049242;28;20142;-62
2022/05/02 08:41:28;;;;;;;6.88;6.57;;;;;;;20.45;35.96;101059.44;5046150;28;20112;-62
2022/05/02 08:44:02;;;;;;;6.32;6.07;;;;;;;20.90;34.86;101067.13;5054002;28;20083;-62
2022/05/02 08:46:36;;;;;;;7.10;6.80;;;;;;;20.65;33.77;101070.78;5054311;28;20103;-61
2022/05/02 08:52:31;;;;;;;6.70;6.40;;;;;;;22.79;31.26;101051.41;5051840;28;20044;-61
2022/05/02 08:55:15;;;;;;;6.78;6.47;;;;;;;21.54;32.91;101051.22;5054327;28;20049;-62
2022/05/02 08:58:08;;;;;;;6.72;6.43;;;;;;;20.13;34.62;101045.31;5054185;28;20412;-62
2022/05/02 09:00:51;;;;;;;6.80;6.50;;;;;;;19.78;34.25;101055.81;5054209;28;20395;-63
2022/05/02 09:03:29;;;;;;;7.10;6.80;;;;;;;20.08;34.30;101043.28;5053841;28;20107;-60
2022/05/02 09:06:32;;;;;;;6.90;6.60;;;;;;;20.61;34.34;101058.81;5050432;28;20543;-61
2022/05/02 09:09:23;;;;;;;7.28;6.97;;;;;;;21.71;31.80;101047.56;5041553;28;20033;-62
2022/05/02 09:12:21;;;;;;;6.88;6.57;;;;;;;21.92;31.27;101048.00;5054091;28;20028;-62
2022/05/02 09:15:06;;;;;;;6.82;6.53;;;;;;;22.35;31.57;101039.50;5026782;28;20063;-62
2022/05/02 09:17:56;;;;;;;7.00;6.70;;;;;;;22.92;29.81;101041.41;5052237;28;20044;-61
2022/05/02 09:20:25;;;;;;;6.93;6.63;;;;;;;21.63;31.90;101036.28;5047724;28;20037;-62
2022/05/02 09:23:18;;;;;;;6.80;6.50;;;;;;;21.79;31.31;101031.00;5053931;28;20025;-62
2022/05/02 09:25:58;;;;;;;6.95;6.65;;;;;;;21.84;31.20;101043.78;5052898;28;20031;-61
2022/05/02 09:28:32;;;;;;;6.80;6.50;;;;;;;20.42;33.35;101039.13;5047746;28;20068;-61
2022/05/02 09:31:09;;;;;;;6.53;6.22;;;;;;;21.30;32.50;101035.00;5052776;28;20057;-62
2022/05/02 09:33:48;;;;;;;6.95;6.65;;;;;;;21.69;31.56;101028.06;5053612;28;20061;-61
2022/05/02 09:36:26;;;;;;;7.35;7.05;;;;;;;21.79;31.97;101031.00;5051517;28;20435;-62
2022/05/02 09:39:35;;;;;;;7.13;6.82;;;;;;;21.23;32.91;101035.06;5053697;28;20407;-60
2022/05/02 09:42:10;;;;;;;6.80;6.50;;;;;;;20.67;33.85;101036.34;5053519;28;20114;-61
2022/05/02 09:51:19;;;;;;;6.90;6.60;;;;;;;20.54;33.84;101019.50;5047413;28;20094;-63
2022/05/02 09:56:37;;;;;;;6.60;6.30;;;;;;;20.83;33.38;101015.97;5048940;28;20041;-62
2022/05/02 09:57:16;;;;;;;6.95;6.65;;;;;;;22.41;31.07;101019.63;5052502;28;20025;-62
2022/05/02 09:59:47;;;;;;;6.90;6.60;;;;;;;22.74;31.17;101009.94;5052741;28;20044;-62
2022/05/02 10:02:21;;;;;;;6.55;6.25;;;;;;;22.68;30.93;101005.47;5037751;28;20022;-62
2022/05/02 10:05:07;;;;;;;6.50;6.20;;;;;;;21.66;32.51;101011.50;5052257;28;20492;-62
2022/05/02 10:08:09;;;;;;;6.80;6.50;;;;;;;21.83;31.24;101001.66;5052963;28;20053;-62
2022/05/02 10:10:45;;;;;;;6.70;6.40;;;;;;;21.21;32.90;101004.78;5053317;28;20067;-62
2022/05/02 10:13:29;;;;;;;6.72;6.43;;;;;;;20.21;33.67;101001.06;5051784;28;20059;-62
2022/05/02 10:16:34;;;;;;;7.00;6.70;;;;;;;22.53;30.37;101006.03;5040796;28;20029;-61
2022/05/02 10:19:31;;;;;;;6.45;6.15;;;;;;;20.47;33.17;101003.44;5051573;28;20060;-63
2022/05/02 10:22:14;;;;;;;6.88;6.57;;;;;;;20.02;33.63;100998.38;5044631;28;20128;-61
2022/05/02 10:25:11;;;;;;;6.78;6.47;;;;;;;21.06;32.20;101001.72;5053216;28;20020;-61
2022/05/02 10:27:58;;;;;;;7.00;6.70;;;;;;;22.02;30.58;100994.19;5045263;28;20025;-62
2022/05/02 10:30:29;;;;;;;7.00;6.70;;;;;;;22.14;30.58;100991.50;5051347;28;20028;-62
2022/05/02 10:32:58;;;;;;;6.80;6.50;;;;;;;22.06;31.14;100990.78;5059111;28;20020;-61
2022/05/02 10:35:26;;;;;;;6.93;6.63;;;;;;;21.34;31.50;100979.47;5053366;28;20452;-61
2022/05/02 10:38:02;;;;;;;6.70;6.40;;;;;;;21.64;32.23;100986.63;5052415;28;20028;-63
2022/05/02 10:40:34;;;;;;;6.82;6.53;;;;;;;21.65;31.16;100988.25;5052784;28;20397;-62
2022/05/02 10:43:03;;;;;;;6.90;6.60;;;;;;;22.01;30.79;100981.75;5048047;28;20028;-61
2022/05/02 10:45:33;;;;;;;7.20;6.90;;;;;;;21.65;31.36;100982.88;5042166;28;20460;-62
2022/05/02 10:48:18;;;;;;;6.70;6.40;;;;;;;22.10;30.89;100976.81;5052018;28;20078;-62
2022/05/02 10:50:52;;;;;;;6.65;6.35;;;;;;;21.16;31.01;100977.69;5051638;28;20103;-63
2022/05/02 10:53:37;;;;;;;6.40;6.10;;;;;;;21.05;31.35;100973.09;5051435;28;20020;-63
2022/05/02 10:56:37;;;;;;;6.70;6.40;;;;;;;21.53;31.16;100969.41;5051383;28;20040;-62
2022/05/02 10:59:05;;;;;;;6.80;6.50;;;;;;;21.32;30.92;100975.38;5043277;28;20053;-62
2022/05/02 11:01:48;;;;;;;6.80;6.50;;;;;;;20.83;30.89;100970.13;5050661;28;20035;-62
2022/05/02 11:04:33;;;;;;;6.55;6.25;;;;;;;21.76;29.92;100963.97;5052234;28;20021;-62
2022/05/02 11:07:14;;;;;;;6.70;6.40;;;;;;;19.94;32.86;100952.91;5043724;28;20040;-61
2022/05/02 11:10:08;;;;;;;6.85;6.55;;;;;;;20.70;31.89;100960.38;5048068;28;20344;-63
2022/05/02 11:12:42;;;;;;;6.55;6.25;;;;;;;20.24;32.26;100949.41;5047730;28;20383;-61
2022/05/02 11:15:13;;;;;;;;;;;;;;;21.33;31.82;100950.03;5051537;28;20029;-62
2022/05/02 11:20:41;;;;;;;6.78;6.47;;;;;;;21.56;30.41;100941.91;5051488;28;19913;-62
2022/05/02 11:21:30;;;;;;;6.80;6.50;;;;;;;21.70;30.38;100935.19;5051378;28;20041;-60
2022/05/02 11:24:14;;;;;;;6.68;6.38;;;;;;;21.12;31.43;100938.75;5051265;28;20071;-62
2022/05/02 11:26:47;;;;;;;6.80;6.50;;;;;;;20.34;32.48;100933.50;5050653;28;20036;-63
2022/05/02 11:29:30;;;;;;;6.75;6.45;;;;;;;21.36;31.13;100930.66;5051763;28;20033;-62
2022/05/02 11:32:05;;;;;;;6.97;6.68;;;;;;;21.02;31.74;100919.63;5038804;28;20517;-62
2022/05/02 11:34:42;;;;;;;6.68;6.38;;;;;;;22.21;30.65;100919.22;5064501;28;20036;-60
2022/05/02 11:37:35;;;;;;;6.72;6.43;;;;;;;22.12;31.13;100909.84;5051539;28;20459;-62
2022/05/02 11:40:05;;;;;;;6.80;6.50;;;;;;;22.22;30.67;100901.94;5051494;28;20198;-62
2022/05/02 11:42:32;;;;;;;6.80;6.50;;;;;;;22.04;31.49;100908.34;5049153;28;20093;-61
2022/05/02 11:45:04;;;;;;;6.90;6.60;;;;;;;21.94;31.95;100908.94;5051499;28;20032;-63
2022/05/02 11:47:48;;;;;;;6.70;6.40;;;;;;;21.94;31.64;100900.84;5051598;28;20013;-61
2022/05/02 11:50:14;;;;;;;6.45;6.15;;;;;;;22.72;31.73;100896.59;5051116;28;20545;-62
2022/05/02 11:52:50;;;;;;;6.65;6.35;;;;;;;21.35;32.22;100902.03;5051385;28;20030;-63
2022/05/02 11:55:19;;;;;;;6.68;6.38;;;;;;;21.51;32.93;100893.22;5051355;28;20017;-62
2022/05/02 11:57:53;;;;;;;6.45;6.15;;;;;;;21.47;32.79;100873.16;5051207;28;20036;-62
2022/05/02 12:00:19;;;;;;;7.00;6.70;;;;;;;20.52;34.25;100884.16;5050308;28;20166;-62
2022/05/02 12:02:54;;;;;;;6.53;6.22;;;;;;;21.03;32.99;100891.59;5051349;28;20715;-61
2022/05/02 12:05:41;;;;;;;6.78;6.47;;;;;;;21.64;31.97;100867.81;5047834;28;20095;-61
2022/05/02 12:08:10;;;;;;;6.85;6.55;;;;;;;20.66;33.21;100870.25;5054902;28;20389;-62
2022/05/02 12:10:35;;;;;;;6.68;6.38;;;;;;;21.46;33.32;100866.94;5044962;28;20029;-62
2022/05/02 12:13:02;;;;;;;6.72;6.43;;;;;;;21.02;34.02;100865.69;5053806;28;20029;-62
2022/05/02 12:15:29;;;;;;;6.95;6.65;;;;;;;20.79;34.41;100871.09;5055326;28;20396;-63
2022/05/02 12:17:56;;;;;;;6.88;6.57;;;;;;;20.52;34.25;100868.00;5053658;28;20033;-61